createdAt,value
2022-12-04T00:01:15.765Z,34.05
2022-12-04T00:03:42.680Z,36.80
2022-12-04T00:06:16.134Z,31.10
2022-12-04T00:08:43.211Z,30.80
2022-12-04T00:11:11.648Z,27.40
2022-12-04T00:13:39.056Z,29.30
2022-12-04T00:16:07.613Z,31.73
2022-12-04T00:18:34.835Z,30.38
2022-12-04T00:21:09.065Z,30.27
2022-12-04T00:23:37.103Z,29.85
2022-12-04T00:26:09.579Z,32.92
2022-12-04T00:28:36.921Z,30.98
2022-12-04T00:31:25.549Z,27.58
2022-12-04T00:33:52.696Z,29.90
2022-12-04T00:36:21.425Z,29.77
2022-12-04T00:38:48.541Z,28.38
2022-12-04T00:41:17.762Z,27.35
2022-12-04T00:43:45.799Z,30.95
2022-12-04T00:46:12.963Z,28.10
2022-12-04T00:48:39.755Z,28.85
2022-12-04T00:51:09.176Z,31.02
2022-12-04T00:53:36.568Z,28.75
2022-12-04T00:56:05.171Z,28.77
2022-12-04T00:58:32.024Z,27.48
2022-12-04T01:01:10.256Z,29.90
2022-12-04T01:03:37.461Z,32.28
2022-12-04T01:06:04.432Z,31.83
2022-12-04T01:08:31.756Z,29.75
2022-12-04T01:10:58.456Z,30.08
2022-12-04T01:13:25.940Z,32.15
2022-12-04T01:15:52.829Z,26.65
2022-12-04T01:18:19.559Z,26.75
2022-12-04T01:20:50.713Z,27.83
2022-12-04T01:23:18.231Z,25.05
2022-12-04T01:25:56.614Z,29.50
2022-12-04T01:28:24.186Z,31.90
2022-12-04T01:31:01.514Z,28.48
2022-12-04T01:33:28.922Z,27.45
2022-12-04T01:35:57.293Z,29.20
2022-12-04T01:38:24.839Z,28.20
2022-12-04T01:40:52.136Z,25.70
2022-12-04T01:43:19.684Z,26.33
2022-12-04T01:45:49.287Z,29.38
2022-12-04T01:48:23.378Z,29.25
2022-12-04T01:50:53.143Z,27.67
2022-12-04T01:53:20.844Z,26.00
2022-12-04T01:55:48.240Z,30.70
2022-12-04T01:58:17.245Z,30.95
2022-12-04T02:00:47.410Z,29.35
2022-12-04T02:03:18.052Z,29.77
2022-12-04T02:05:44.801Z,28.67
2022-12-04T02:08:11.598Z,27.55
2022-12-04T02:10:59.199Z,30.50
2022-12-04T02:13:42.468Z,29.30
2022-12-04T02:16:20.209Z,24.92
2022-12-04T02:18:54.951Z,27.05
2022-12-04T02:21:33.507Z,30.95
2022-12-04T02:24:11.524Z,27.08
2022-12-04T02:26:53.205Z,29.55
2022-12-04T02:29:41.391Z,29.90
2022-12-04T02:32:14.176Z,28.80
2022-12-04T02:34:54.341Z,27.58
2022-12-04T02:37:44.512Z,28.25
2022-12-04T02:40:25.959Z,28.20
2022-12-04T02:42:57.721Z,28.05
2022-12-04T02:45:27.509Z,25.27
2022-12-04T02:47:55.370Z,28.70
2022-12-04T02:50:22.619Z,28.63
2022-12-04T02:52:59.133Z,28.55
2022-12-04T02:55:30.801Z,26.05
2022-12-04T02:58:01.378Z,28.50
2022-12-04T03:00:30.285Z,29.63
2022-12-04T03:03:03.037Z,22.88
2022-12-04T03:05:36.830Z,26.73
2022-12-04T03:08:11.881Z,26.27
2022-12-04T03:10:44.240Z,24.50
2022-12-04T03:13:18.574Z,22.42
2022-12-04T03:16:00.861Z,24.65
2022-12-04T03:18:32.343Z,25.80
2022-12-04T03:21:05.205Z,25.25
2022-12-04T03:23:39.510Z,22.50
2022-12-04T03:26:12.433Z,26.80
2022-12-04T03:28:59.395Z,28.50
2022-12-04T03:31:39.094Z,25.60
2022-12-04T03:34:07.745Z,25.50
2022-12-04T03:36:38.105Z,27.48
2022-12-04T03:39:24.431Z,25.33
2022-12-04T03:41:55.792Z,23.52
2022-12-04T03:44:34.316Z,29.75
2022-12-04T03:47:21.484Z,25.40
2022-12-04T03:49:54.948Z,26.92
2022-12-04T03:52:36.350Z,28.20
2022-12-04T03:55:15.968Z,25.42
2022-12-04T03:57:44.701Z,26.80
2022-12-04T04:00:14.552Z,24.45
2022-12-04T04:03:03.738Z,23.98
2022-12-04T04:05:31.894Z,24.63
2022-12-04T04:08:21.923Z,21.98
2022-12-04T04:10:49.402Z,26.27
2022-12-04T04:13:52.144Z,22.92
2022-12-04T04:16:39.973Z,25.95
2022-12-04T04:19:26.644Z,24.63
2022-12-04T04:22:12.380Z,23.58
2022-12-04T04:24:46.526Z,26.33
2022-12-04T04:27:13.490Z,29.75
2022-12-04T04:29:41.913Z,23.13
2022-12-04T04:32:17.607Z,24.83
2022-12-04T04:34:52.760Z,23.08
2022-12-04T04:37:28.103Z,24.98
2022-12-04T04:40:06.983Z,24.02
2022-12-04T04:42:40.218Z,19.00
2022-12-04T04:47:46.045Z,25.02
2022-12-04T04:50:15.015Z,21.85
2022-12-04T04:52:45.795Z,24.33
2022-12-04T04:55:13.574Z,22.35
2022-12-04T04:57:40.511Z,23.55
2022-12-04T05:00:20.185Z,21.90
2022-12-04T05:02:48.714Z,22.70
2022-12-04T05:05:17.161Z,24.35
2022-12-04T05:07:43.990Z,22.90
2022-12-04T05:10:10.976Z,19.33
2022-12-04T05:12:37.776Z,21.80
2022-12-04T05:15:05.243Z,20.20
2022-12-04T05:17:31.981Z,24.23
2022-12-04T05:19:58.946Z,23.88
2022-12-04T05:22:31.573Z,25.95
2022-12-04T05:24:58.782Z,24.43
2022-12-04T05:27:26.821Z,25.85
2022-12-04T05:29:54.945Z,21.75
2022-12-04T05:32:23.407Z,20.48
2022-12-04T05:34:54.001Z,19.55
2022-12-04T05:37:20.922Z,21.58
2022-12-04T05:39:47.944Z,21.95
2022-12-04T05:42:14.724Z,22.67
2022-12-04T05:44:41.423Z,21.00
2022-12-04T05:47:08.236Z,17.40
2022-12-04T05:49:35.412Z,20.45
2022-12-04T05:52:03.823Z,21.38
2022-12-04T05:54:30.724Z,18.98
2022-12-04T05:56:57.363Z,19.30
2022-12-04T05:59:24.137Z,17.50
2022-12-04T06:01:50.940Z,18.52
2022-12-04T06:04:17.680Z,18.25
2022-12-04T06:06:44.355Z,21.45
2022-12-04T06:09:11.614Z,17.42
2022-12-04T06:11:39.773Z,20.83
2022-12-04T06:14:09.057Z,19.23
2022-12-04T06:16:38.709Z,20.73
2022-12-04T06:19:08.321Z,23.60
2022-12-04T06:21:36.956Z,19.52
2022-12-04T06:24:04.702Z,16.90
2022-12-04T06:26:31.376Z,21.42
2022-12-04T06:28:58.942Z,16.77
2022-12-04T06:31:28.046Z,19.13
2022-12-04T06:33:56.064Z,20.25
2022-12-04T06:36:23.239Z,21.60
2022-12-04T06:38:50.813Z,19.63
2022-12-04T06:41:20.416Z,17.85
2022-12-04T06:43:48.587Z,19.55
2022-12-04T06:46:21.115Z,18.10
2022-12-04T06:48:48.090Z,21.90
2022-12-04T06:51:17.442Z,22.10
2022-12-04T06:53:44.310Z,19.33
2022-12-04T06:56:16.209Z,18.25
2022-12-04T06:58:42.900Z,20.13
2022-12-04T07:01:11.712Z,18.73
2022-12-04T07:03:38.546Z,20.80
2022-12-04T07:06:14.406Z,18.30
2022-12-04T07:08:41.840Z,19.02
2022-12-04T07:11:09.018Z,18.65
2022-12-04T07:13:35.770Z,19.90
2022-12-04T07:16:05.142Z,20.73
2022-12-04T07:18:32.980Z,19.58
2022-12-04T07:20:59.681Z,22.38
2022-12-04T07:23:26.450Z,19.90
2022-12-04T07:25:53.228Z,19.38
2022-12-04T07:28:19.969Z,18.38
2022-12-04T07:30:46.774Z,18.83
2022-12-04T07:33:13.587Z,20.85
2022-12-04T07:35:43.299Z,20.33
2022-12-04T07:38:10.066Z,21.23
2022-12-04T07:40:39.740Z,19.42
2022-12-04T07:43:06.525Z,19.38
2022-12-04T07:45:33.269Z,18.15
2022-12-04T07:48:00.030Z,20.90
2022-12-04T07:50:26.710Z,19.15
2022-12-04T07:52:53.484Z,24.20
2022-12-04T07:55:23.433Z,25.70
2022-12-04T07:58:03.241Z,26.95
2022-12-04T08:00:33.593Z,19.92
2022-12-04T08:03:00.489Z,21.20
2022-12-04T08:05:27.290Z,21.83
2022-12-04T08:07:54.437Z,19.42
2022-12-04T08:10:21.207Z,20.45
2022-12-04T08:12:47.875Z,21.75
2022-12-04T08:15:14.624Z,20.70
2022-12-04T08:17:41.317Z,21.80
2022-12-04T08:20:08.249Z,28.63
2022-12-04T08:22:34.868Z,23.85
2022-12-04T08:25:01.700Z,21.23
2022-12-04T08:27:28.494Z,23.98
2022-12-04T08:29:55.425Z,21.88
2022-12-04T08:32:22.307Z,24.70
2022-12-04T08:34:55.510Z,21.42
2022-12-04T08:37:28.707Z,24.30
2022-12-04T08:39:55.802Z,19.33
2022-12-04T08:42:25.285Z,20.23
2022-12-04T08:44:52.039Z,17.25
2022-12-04T08:47:18.905Z,19.63
2022-12-04T08:49:45.639Z,18.92
2022-12-04T08:52:12.350Z,25.02
2022-12-04T08:54:39.062Z,19.77
2022-12-04T08:57:05.859Z,20.65
2022-12-04T08:59:32.746Z,19.33
2022-12-04T09:01:59.545Z,20.92
2022-12-04T09:04:26.426Z,23.55
2022-12-04T09:06:54.694Z,17.25
2022-12-04T09:09:21.375Z,19.08
2022-12-04T09:11:48.505Z,20.73
2022-12-04T09:14:15.253Z,20.63
2022-12-04T09:16:41.958Z,16.83
2022-12-04T09:19:08.653Z,20.27
2022-12-04T09:21:36.722Z,22.30
2022-12-04T09:24:03.485Z,15.80
2022-12-04T09:26:32.091Z,18.67
2022-12-04T09:29:00.511Z,20.15
2022-12-04T09:31:27.698Z,22.02
2022-12-04T09:33:54.588Z,22.27
2022-12-04T09:36:21.763Z,23.80
2022-12-04T09:38:50.782Z,22.65
2022-12-04T09:41:35.999Z,25.90
2022-12-04T09:44:20.633Z,23.40
2022-12-04T09:46:52.028Z,20.60
2022-12-04T09:49:26.733Z,24.55
2022-12-04T09:51:55.764Z,26.08
2022-12-04T09:54:26.916Z,25.38
2022-12-04T09:57:04.316Z,26.30
2022-12-04T09:59:32.046Z,26.23
2022-12-04T10:02:03.772Z,29.27
2022-12-04T10:04:30.635Z,24.20
2022-12-04T10:07:22.894Z,28.20
2022-12-04T10:09:58.955Z,25.50
2022-12-04T10:12:50.306Z,29.58
2022-12-04T10:15:43.596Z,32.83
2022-12-04T10:18:33.091Z,26.27
2022-12-04T10:21:13.763Z,30.63
2022-12-04T10:24:20.240Z,27.67
2022-12-04T10:26:48.412Z,30.80
2022-12-04T10:29:33.022Z,27.13
2022-12-04T10:32:14.714Z,23.95
2022-12-04T10:34:45.621Z,26.98
2022-12-04T10:37:14.601Z,24.58
2022-12-04T10:39:55.264Z,25.92
2022-12-04T10:42:31.652Z,24.77
2022-12-04T10:44:58.485Z,25.50
2022-12-04T10:47:25.453Z,24.92
2022-12-04T10:50:05.544Z,28.25
2022-12-04T10:52:32.280Z,25.20
2022-12-04T10:55:00.269Z,27.02
2022-12-04T10:57:46.044Z,23.65
2022-12-04T11:00:35.091Z,23.27
2022-12-04T11:03:08.797Z,24.08
2022-12-04T11:05:39.826Z,23.85
2022-12-04T11:08:07.402Z,22.70
2022-12-04T11:10:38.234Z,30.40
2022-12-04T11:13:10.977Z,20.65
2022-12-04T11:15:45.995Z,22.05
2022-12-04T11:18:18.884Z,23.05
2022-12-04T11:20:54.649Z,24.60
2022-12-04T11:23:22.116Z,23.77
2022-12-04T11:25:52.578Z,27.17
2022-12-04T11:28:40.645Z,28.80
2022-12-04T11:31:08.660Z,32.92
2022-12-04T11:33:36.940Z,28.63
2022-12-04T11:36:07.842Z,32.80
2022-12-04T11:38:35.098Z,29.80
2022-12-04T11:41:03.346Z,34.85
2022-12-04T11:43:32.835Z,30.05
2022-12-04T11:46:04.810Z,45.10
2022-12-04T11:48:32.478Z,31.17
2022-12-04T11:51:17.966Z,26.95
2022-12-04T11:53:55.718Z,25.38
2022-12-04T11:56:27.055Z,28.52
2022-12-04T11:58:53.814Z,28.85
2022-12-04T12:01:23.402Z,29.25
2022-12-04T12:04:08.095Z,25.42
2022-12-04T12:06:39.676Z,24.38
2022-12-04T12:09:25.200Z,24.77
2022-12-04T12:12:16.825Z,26.33
2022-12-04T12:15:08.404Z,25.65
2022-12-04T12:18:08.773Z,24.48
2022-12-04T12:20:54.014Z,33.33
2022-12-04T12:23:32.876Z,36.05
2022-12-04T12:26:13.599Z,29.85
2022-12-04T12:28:58.550Z,25.67
2022-12-04T12:31:34.124Z,27.30
2022-12-04T12:34:05.682Z,27.38
2022-12-04T12:36:42.815Z,27.05
2022-12-04T12:39:16.575Z,25.17
2022-12-04T12:41:48.101Z,27.25
2022-12-04T12:44:21.726Z,25.13
2022-12-04T12:46:53.626Z,28.33
2022-12-04T12:49:23.339Z,27.30
2022-12-04T12:52:13.042Z,27.13
2022-12-04T12:54:39.730Z,29.08
2022-12-04T12:57:17.632Z,31.08
2022-12-04T12:59:48.709Z,27.58
2022-12-04T13:02:28.383Z,31.30
2022-12-04T13:04:58.188Z,28.27
2022-12-04T13:07:36.853Z,25.35
2022-12-04T13:10:12.388Z,26.23
2022-12-04T13:12:49.225Z,31.00
2022-12-04T13:15:17.924Z,30.73
2022-12-04T13:17:45.479Z,32.90
2022-12-04T13:20:18.948Z,28.08
2022-12-04T13:23:02.480Z,29.58
2022-12-04T13:25:31.342Z,30.00
2022-12-04T13:28:14.288Z,31.75
2022-12-04T13:30:59.821Z,28.63
2022-12-04T13:33:38.310Z,30.13
2022-12-04T13:36:23.035Z,30.85
2022-12-04T13:39:14.455Z,26.15
2022-12-04T13:41:41.132Z,26.27
2022-12-04T13:44:20.362Z,29.65
2022-12-04T13:46:56.628Z,31.10
2022-12-04T13:49:27.414Z,30.80
2022-12-04T13:51:55.626Z,27.38
2022-12-04T13:54:26.959Z,30.70
2022-12-04T13:56:56.910Z,25.50
2022-12-04T13:59:23.532Z,29.90
2022-12-04T14:01:52.367Z,26.63
2022-12-04T14:04:27.392Z,27.05
2022-12-04T14:06:56.135Z,25.48
2022-12-04T14:09:29.705Z,28.17
2022-12-04T14:12:01.731Z,30.08
2022-12-04T14:14:38.793Z,32.10
2022-12-04T14:17:05.690Z,27.27
2022-12-04T14:19:41.182Z,32.03
2022-12-04T14:22:25.501Z,29.35
2022-12-04T14:24:52.532Z,28.17
2022-12-04T14:27:42.731Z,30.20
2022-12-04T14:30:39.121Z,38.70
2022-12-04T14:33:08.335Z,26.60
2022-12-04T14:35:43.436Z,30.65
2022-12-04T14:38:16.943Z,29.02
2022-12-04T14:40:52.088Z,27.67
2022-12-04T14:43:21.327Z,28.55
2022-12-04T14:45:58.517Z,27.92
2022-12-04T14:48:42.242Z,30.77
2022-12-04T14:51:47.169Z,35.60
2022-12-04T14:54:29.053Z,30.25
2022-12-04T14:57:14.361Z,30.35
2022-12-04T14:59:47.625Z,30.08
2022-12-04T15:04:47.192Z,33.60
2022-12-04T15:07:20.971Z,27.63
2022-12-04T15:10:20.802Z,33.47
2022-12-04T15:12:50.921Z,28.55
2022-12-04T15:15:27.033Z,40.92
2022-12-04T15:18:01.743Z,33.97
2022-12-04T15:20:50.159Z,32.33
2022-12-04T15:23:17.589Z,30.02
2022-12-04T15:25:47.179Z,30.73
2022-12-04T15:28:21.322Z,34.80
2022-12-04T15:30:49.017Z,34.05
2022-12-04T15:33:21.481Z,32.08
2022-12-04T15:36:02.034Z,31.92
2022-12-04T15:38:29.030Z,32.22
2022-12-04T15:40:58.056Z,30.63
2022-12-04T15:43:40.909Z,32.20
2022-12-04T15:46:15.257Z,30.48
2022-12-04T15:48:47.562Z,35.05
2022-12-04T15:51:16.133Z,32.63
2022-12-04T15:53:45.951Z,29.27
2022-12-04T15:56:20.802Z,30.13
2022-12-04T15:58:57.175Z,35.88
2022-12-04T16:01:24.009Z,34.53
2022-12-04T16:03:57.094Z,32.53
2022-12-04T16:06:32.376Z,28.83
2022-12-04T16:09:00.162Z,29.05
2022-12-04T16:11:34.704Z,27.35
2022-12-04T16:14:13.459Z,32.67
2022-12-04T16:16:43.637Z,29.50
2022-12-04T16:19:28.772Z,35.58
2022-12-04T16:21:55.589Z,27.88
2022-12-04T16:24:22.806Z,30.55
2022-12-04T16:26:54.798Z,33.55
2022-12-04T16:29:22.536Z,32.50
2022-12-04T16:31:49.698Z,31.95
2022-12-04T16:34:16.734Z,28.55
2022-12-04T16:36:43.781Z,30.20
2022-12-04T16:39:10.730Z,29.20
2022-12-04T16:41:37.648Z,26.27
2022-12-04T16:44:12.342Z,28.80
2022-12-04T16:46:39.182Z,26.00
2022-12-04T16:49:07.597Z,27.27
2022-12-04T16:55:33.472Z,26.30
2022-12-04T17:01:48.625Z,27.73
2022-12-04T17:04:16.861Z,27.77
2022-12-04T17:06:43.795Z,33.40
2022-12-04T17:09:10.660Z,27.23
2022-12-04T17:11:37.648Z,23.27
2022-12-04T17:14:07.227Z,23.40
2022-12-04T17:16:35.773Z,23.60
2022-12-04T17:19:03.293Z,25.98
2022-12-04T17:21:30.206Z,27.30
2022-12-04T17:23:56.952Z,25.63
2022-12-04T17:26:24.007Z,25.15
2022-12-04T17:28:50.763Z,30.08
2022-12-04T17:31:22.941Z,28.10
2022-12-04T17:33:50.315Z,27.30
2022-12-04T17:36:22.175Z,25.65
2022-12-04T17:38:53.532Z,28.10
2022-12-04T17:41:20.422Z,24.05
2022-12-04T17:43:47.664Z,24.70
2022-12-04T17:46:17.462Z,20.40
2022-12-04T17:48:44.349Z,24.35
2022-12-04T17:51:22.194Z,23.42
2022-12-04T17:53:49.356Z,25.80
2022-12-04T17:56:18.428Z,28.17
2022-12-04T17:58:46.086Z,26.35
2022-12-04T18:01:24.627Z,27.60
2022-12-04T18:03:57.080Z,30.88
2022-12-04T18:06:25.945Z,27.80
2022-12-04T18:08:53.395Z,26.23
2022-12-04T18:11:21.461Z,29.45
2022-12-04T18:13:49.459Z,28.08
2022-12-04T18:16:16.550Z,26.67
2022-12-04T18:18:46.603Z,28.70
2022-12-04T18:21:14.426Z,30.08
2022-12-04T18:23:47.261Z,30.58
2022-12-04T18:26:17.642Z,29.63
2022-12-04T18:28:45.208Z,26.42
2022-12-04T18:31:12.598Z,28.85
2022-12-04T18:33:40.741Z,27.05
2022-12-04T18:36:09.456Z,25.75
2022-12-04T18:38:36.188Z,31.38
2022-12-04T18:41:07.804Z,28.67
2022-12-04T18:43:39.619Z,28.17
2022-12-04T18:46:09.043Z,34.58
2022-12-04T18:48:36.840Z,33.85
2022-12-04T18:51:26.846Z,29.08
2022-12-04T18:53:56.272Z,28.02
2022-12-04T18:56:22.982Z,30.88
2022-12-04T18:58:49.837Z,31.25
2022-12-04T19:01:18.869Z,30.25
2022-12-04T19:03:46.937Z,30.95
2022-12-04T19:06:13.979Z,32.13
2022-12-04T19:08:43.257Z,27.38
2022-12-04T19:11:15.710Z,26.52
2022-12-04T19:13:42.571Z,30.98
2022-12-04T19:16:13.399Z,29.48
2022-12-04T19:18:41.436Z,27.00
2022-12-04T19:21:09.041Z,30.60
2022-12-04T19:23:35.862Z,29.85
2022-12-04T19:26:03.297Z,39.03
2022-12-04T19:28:30.428Z,26.50
2022-12-04T19:30:57.504Z,29.02
2022-12-04T19:33:25.092Z,27.35
2022-12-04T19:35:58.824Z,33.05
2022-12-04T19:38:25.741Z,30.35
2022-12-04T19:41:06.451Z,32.08
2022-12-04T19:43:33.380Z,30.45
2022-12-04T19:46:00.229Z,28.88
2022-12-04T19:48:27.101Z,32.33
2022-12-04T19:50:53.963Z,29.75
2022-12-04T19:53:20.825Z,34.17
2022-12-04T19:55:47.524Z,40.03
2022-12-04T19:58:14.318Z,29.02
2022-12-04T20:00:41.439Z,33.35
2022-12-04T20:03:08.179Z,33.90
2022-12-04T20:05:37.931Z,33.47
2022-12-04T20:10:33.007Z,41.60
2022-12-04T20:12:59.807Z,37.78
2022-12-04T20:15:26.625Z,36.47
2022-12-04T20:17:53.599Z,36.05
2022-12-04T20:20:20.473Z,37.47
2022-12-04T20:22:47.635Z,34.03
2022-12-04T20:25:14.502Z,35.92
2022-12-04T20:27:41.336Z,38.35
2022-12-04T20:30:08.705Z,35.47
2022-12-04T20:32:35.497Z,37.80
2022-12-04T20:35:02.234Z,34.88
2022-12-04T20:37:29.800Z,42.58
2022-12-04T20:39:56.896Z,33.33
2022-12-04T20:42:27.410Z,32.50
2022-12-04T20:47:25.095Z,37.47
2022-12-04T20:49:52.096Z,42.53
2022-12-04T20:52:18.926Z,41.40
2022-12-04T20:54:45.905Z,38.55
2022-12-04T20:57:12.652Z,38.78
2022-12-04T20:59:39.477Z,39.75
2022-12-04T21:02:06.324Z,37.03
2022-12-04T21:04:37.805Z,38.72
2022-12-04T21:07:04.520Z,40.30
2022-12-04T21:09:31.388Z,42.83
2022-12-04T21:11:58.162Z,38.28
2022-12-04T21:14:46.519Z,40.30
2022-12-04T21:17:18.774Z,38.83
2022-12-04T21:19:46.752Z,40.75
2022-12-04T21:22:13.503Z,36.03
2022-12-04T21:24:42.107Z,37.83
2022-12-04T21:27:11.572Z,42.72
2022-12-04T21:29:40.076Z,41.40
2022-12-04T21:32:08.101Z,44.53
2022-12-04T21:34:34.922Z,47.17
2022-12-04T21:37:01.636Z,43.22
2022-12-04T21:39:28.359Z,42.78
2022-12-04T21:42:13.844Z,40.92
2022-12-04T21:44:40.696Z,46.03
2022-12-04T21:47:07.387Z,43.53
2022-12-04T21:49:34.093Z,44.42
2022-12-04T21:52:01.031Z,42.35
2022-12-04T21:54:28.015Z,44.05
2022-12-04T21:56:54.741Z,46.63
2022-12-04T21:59:21.482Z,46.13
2022-12-04T22:01:48.287Z,46.70
2022-12-04T22:04:15.440Z,35.47
2022-12-04T22:06:42.245Z,39.55
2022-12-04T22:09:10.907Z,39.95
2022-12-04T22:11:38.716Z,47.45
2022-12-04T22:14:05.448Z,45.13
2022-12-04T22:16:34.699Z,50.45
2022-12-04T22:19:04.358Z,45.70
2022-12-04T22:21:31.341Z,42.13
2022-12-04T22:23:59.549Z,44.40
2022-12-04T22:26:28.352Z,40.90
2022-12-04T22:28:55.656Z,44.90
2022-12-04T22:31:24.405Z,41.55
2022-12-04T22:33:53.230Z,43.72
2022-12-04T22:36:24.215Z,35.20
2022-12-04T22:39:09.708Z,43.90
2022-12-04T22:41:36.989Z,44.20
2022-12-04T22:44:04.203Z,38.53
2022-12-04T22:46:31.129Z,41.22
2022-12-04T22:48:58.702Z,44.97
2022-12-04T22:51:25.435Z,38.38
2022-12-04T22:53:54.200Z,41.97
2022-12-04T22:56:23.677Z,43.53
2022-12-04T22:58:50.841Z,37.65
2022-12-04T23:01:21.496Z,39.33
2022-12-04T23:03:48.616Z,37.80
2022-12-04T23:06:16.580Z,37.83
2022-12-04T23:08:43.762Z,35.13
2022-12-04T23:11:13.583Z,45.70
2022-12-04T23:13:40.701Z,41.97
2022-12-04T23:16:09.758Z,35.38
2022-12-04T23:18:37.324Z,43.90
2022-12-04T23:21:09.407Z,35.50
2022-12-04T23:23:37.452Z,42.08
2022-12-04T23:26:05.975Z,35.78
2022-12-04T23:28:32.705Z,30.73
2022-12-04T23:30:59.636Z,30.25
2022-12-04T23:33:26.607Z,23.60
2022-12-04T23:35:54.675Z,26.73
2022-12-04T23:38:22.870Z,26.25
2022-12-04T23:40:49.803Z,21.23
2022-12-04T23:43:17.156Z,20.00
2022-12-04T23:45:44.422Z,19.45
2022-12-04T23:48:11.236Z,18.60
2022-12-04T23:50:37.954Z,16.67
2022-12-04T23:53:04.616Z,18.33
2022-12-04T23:55:34.488Z,21.27
2022-12-04T23:58:02.111Z,23.00
